sensor_id;sensor_type;location;lat;lon;timestamp;temperature;humidity
76291;DHT22;65100;46.884;17.410;2023-04-09T00:00:31;5.86;85.48
76291;DHT22;65100;46.884;17.410;2023-04-09T00:02:57;5.83;85.39
76291;DHT22;65100;46.884;17.410;2023-04-09T00:05:22;5.89;84.91
76291;DHT22;65100;46.884;17.410;2023-04-09T00:07:48;5.86;85.52
76291;DHT22;65100;46.884;17.410;2023-04-09T00:10:13;5.93;84.91
76291;DHT22;65100;46.884;17.410;2023-04-09T00:12:39;5.88;85.06
76291;DHT22;65100;46.884;17.410;2023-04-09T00:15:05;5.89;85.01
76291;DHT22;65100;46.884;17.410;2023-04-09T00:17:30;5.88;85.06
76291;DHT22;65100;46.884;17.410;2023-04-09T00:19:56;5.91;84.80
76291;DHT22;65100;46.884;17.410;2023-04-09T00:22:21;5.85;84.92
76291;DHT22;65100;46.884;17.410;2023-04-09T00:24:47;5.76;85.65
76291;DHT22;65100;46.884;17.410;2023-04-09T00:27:12;5.73;85.65
76291;DHT22;65100;46.884;17.410;2023-04-09T00:29:38;5.73;85.54
76291;DHT22;65100;46.884;17.410;2023-04-09T00:32:03;5.71;85.83
76291;DHT22;65100;46.884;17.410;2023-04-09T00:34:29;5.78;85.78
76291;DHT22;65100;46.884;17.410;2023-04-09T00:36:54;5.68;85.92
76291;DHT22;65100;46.884;17.410;2023-04-09T00:39:20;5.63;85.77
76291;DHT22;65100;46.884;17.410;2023-04-09T00:41:45;5.73;85.67
76291;DHT22;65100;46.884;17.410;2023-04-09T00:44:10;5.75;85.55
76291;DHT22;65100;46.884;17.410;2023-04-09T00:46:36;5.73;85.07
76291;DHT22;65100;46.884;17.410;2023-04-09T00:49:01;5.69;85.40
76291;DHT22;65100;46.884;17.410;2023-04-09T00:51:27;5.69;85.43
76291;DHT22;65100;46.884;17.410;2023-04-09T00:53:53;5.72;85.33
76291;DHT22;65100;46.884;17.410;2023-04-09T00:56:20;5.68;85.43
76291;DHT22;65100;46.884;17.410;2023-04-09T00:58:47;5.71;84.86
76291;DHT22;65100;46.884;17.410;2023-04-09T01:01:13;5.66;84.90
76291;DHT22;65100;46.884;17.410;2023-04-09T01:03:38;5.69;84.47
76291;DHT22;65100;46.884;17.410;2023-04-09T01:06:13;5.58;85.23
76291;DHT22;65100;46.884;17.410;2023-04-09T01:08:50;5.55;85.89
76291;DHT22;65100;46.884;17.410;2023-04-09T01:14:11;5.58;85.63
76291;DHT22;65100;46.884;17.410;2023-04-09T01:16:41;5.47;86.08
76291;DHT22;65100;46.884;17.410;2023-04-09T01:21:54;5.42;85.80
76291;DHT22;65100;46.884;17.410;2023-04-09T01:24:41;5.37;85.84
76291;DHT22;65100;46.884;17.410;2023-04-09T01:27:12;5.21;85.92
76291;DHT22;65100;46.884;17.410;2023-04-09T01:29:44;5.38;85.54
76291;DHT22;65100;46.884;17.410;2023-04-09T01:32:11;5.21;85.75
76291;DHT22;65100;46.884;17.410;2023-04-09T01:34:38;5.14;86.05
76291;DHT22;65100;46.884;17.410;2023-04-09T01:37:05;4.97;86.95
76291;DHT22;65100;46.884;17.410;2023-04-09T01:39:32;5.03;86.65
76291;DHT22;65100;46.884;17.410;2023-04-09T01:41:58;5.13;86.38
76291;DHT22;65100;46.884;17.410;2023-04-09T01:44:26;5.11;86.34
76291;DHT22;65100;46.884;17.410;2023-04-09T01:46:53;5.01;86.55
76291;DHT22;65100;46.884;17.410;2023-04-09T01:49:19;4.70;87.84
76291;DHT22;65100;46.884;17.410;2023-04-09T01:51:46;4.43;89.48
76291;DHT22;65100;46.884;17.410;2023-04-09T01:54:11;4.13;90.47
76291;DHT22;65100;46.884;17.410;2023-04-09T01:56:47;4.07;91.37
76291;DHT22;65100;46.884;17.410;2023-04-09T01:59:13;4.06;90.79
76291;DHT22;65100;46.884;17.410;2023-04-09T02:02:00;4.53;89.46
76291;DHT22;65100;46.884;17.410;2023-04-09T02:04:34;4.69;88.06
76291;DHT22;65100;46.884;17.410;2023-04-09T02:07:10;4.60;88.39
76291;DHT22;65100;46.884;17.410;2023-04-09T02:09:38;4.50;88.95
76291;DHT22;65100;46.884;17.410;2023-04-09T02:12:09;4.19;89.42
76291;DHT22;65100;46.884;17.410;2023-04-09T02:14:37;4.12;89.92
76291;DHT22;65100;46.884;17.410;2023-04-09T02:17:03;4.19;89.77
76291;DHT22;65100;46.884;17.410;2023-04-09T02:19:42;4.13;90.14
76291;DHT22;65100;46.884;17.410;2023-04-09T02:22:09;4.12;89.76
76291;DHT22;65100;46.884;17.410;2023-04-09T02:24:35;4.26;88.90
76291;DHT22;65100;46.884;17.410;2023-04-09T02:27:01;4.15;89.72
76291;DHT22;65100;46.884;17.410;2023-04-09T02:29:26;4.02;90.05
76291;DHT22;65100;46.884;17.410;2023-04-09T02:31:52;4.17;90.18
76291;DHT22;65100;46.884;17.410;2023-04-09T02:34:18;4.47;88.67
76291;DHT22;65100;46.884;17.410;2023-04-09T02:36:44;4.61;88.14
76291;DHT22;65100;46.884;17.410;2023-04-09T02:39:09;4.69;86.81
76291;DHT22;65100;46.884;17.410;2023-04-09T02:41:35;4.60;86.02
76291;DHT22;65100;46.884;17.410;2023-04-09T02:44:00;4.53;85.98
76291;DHT22;65100;46.884;17.410;2023-04-09T02:46:26;4.37;86.21
76291;DHT22;65100;46.884;17.410;2023-04-09T02:48:51;4.19;87.17
76291;DHT22;65100;46.884;17.410;2023-04-09T02:51:17;4.17;87.69
76291;DHT22;65100;46.884;17.410;2023-04-09T02:53:42;4.37;87.17
76291;DHT22;65100;46.884;17.410;2023-04-09T02:56:09;4.43;86.05
76291;DHT22;65100;46.884;17.410;2023-04-09T02:58:35;4.52;84.82
76291;DHT22;65100;46.884;17.410;2023-04-09T03:01:00;4.54;84.49
76291;DHT22;65100;46.884;17.410;2023-04-09T03:03:26;4.46;84.16
76291;DHT22;65100;46.884;17.410;2023-04-09T03:05:51;4.36;84.80
76291;DHT22;65100;46.884;17.410;2023-04-09T03:08:17;4.30;85.43
76291;DHT22;65100;46.884;17.410;2023-04-09T03:10:42;4.23;85.97
76291;DHT22;65100;46.884;17.410;2023-04-09T03:13:08;4.19;86.29
76291;DHT22;65100;46.884;17.410;2023-04-09T03:15:33;3.96;87.00
76291;DHT22;65100;46.884;17.410;2023-04-09T03:17:58;3.98;87.02
76291;DHT22;65100;46.884;17.410;2023-04-09T03:20:24;3.85;87.50
76291;DHT22;65100;46.884;17.410;2023-04-09T03:22:49;3.92;87.80
76291;DHT22;65100;46.884;17.410;2023-04-09T03:25:15;3.92;88.62
76291;DHT22;65100;46.884;17.410;2023-04-09T03:27:43;4.20;88.89
76291;DHT22;65100;46.884;17.410;2023-04-09T03:30:10;4.26;88.90
76291;DHT22;65100;46.884;17.410;2023-04-09T03:32:35;4.29;89.16
76291;DHT22;65100;46.884;17.410;2023-04-09T03:35:01;4.32;89.02
76291;DHT22;65100;46.884;17.410;2023-04-09T03:37:26;4.25;89.57
76291;DHT22;65100;46.884;17.410;2023-04-09T03:39:52;4.26;89.34
76291;DHT22;65100;46.884;17.410;2023-04-09T03:42:17;4.03;89.93
76291;DHT22;65100;46.884;17.410;2023-04-09T03:44:42;4.17;90.04
76291;DHT22;65100;46.884;17.410;2023-04-09T03:47:08;4.28;89.74
76291;DHT22;65100;46.884;17.410;2023-04-09T03:49:34;4.42;89.36
76291;DHT22;65100;46.884;17.410;2023-04-09T03:52:00;4.50;88.75
76291;DHT22;65100;46.884;17.410;2023-04-09T03:54:28;4.49;88.99
76291;DHT22;65100;46.884;17.410;2023-04-09T03:56:54;4.42;89.06
76291;DHT22;65100;46.884;17.410;2023-04-09T03:59:20;4.28;88.33
76291;DHT22;65100;46.884;17.410;2023-04-09T04:01:46;4.29;89.00
76291;DHT22;65100;46.884;17.410;2023-04-09T04:04:12;4.39;88.47
76291;DHT22;65100;46.884;17.410;2023-04-09T04:06:37;4.45;88.08
76291;DHT22;65100;46.884;17.410;2023-04-09T04:09:03;4.49;87.87
76291;DHT22;65100;46.884;17.410;2023-04-09T04:11:28;4.53;87.68
76291;DHT22;65100;46.884;17.410;2023-04-09T04:13:54;4.56;87.71
76291;DHT22;65100;46.884;17.410;2023-04-09T04:16:20;4.59;87.52
76291;DHT22;65100;46.884;17.410;2023-04-09T04:18:46;4.54;87.62
76291;DHT22;65100;46.884;17.410;2023-04-09T04:21:15;4.52;88.00
76291;DHT22;65100;46.884;17.410;2023-04-09T04:23:41;4.56;87.41
76291;DHT22;65100;46.884;17.410;2023-04-09T04:26:08;4.57;87.30
76291;DHT22;65100;46.884;17.410;2023-04-09T04:28:37;4.59;87.35
76291;DHT22;65100;46.884;17.410;2023-04-09T04:31:07;4.57;87.45
76291;DHT22;65100;46.884;17.410;2023-04-09T04:33:33;4.61;87.31
76291;DHT22;65100;46.884;17.410;2023-04-09T04:36:12;4.61;87.30
76291;DHT22;65100;46.884;17.410;2023-04-09T04:38:39;4.64;87.17
76291;DHT22;65100;46.884;17.410;2023-04-09T04:41:05;4.70;87.11
76291;DHT22;65100;46.884;17.410;2023-04-09T04:43:31;4.57;87.78
76291;DHT22;65100;46.884;17.410;2023-04-09T04:45:56;4.42;88.74
76291;DHT22;65100;46.884;17.410;2023-04-09T04:48:22;4.35;89.32
76291;DHT22;65100;46.884;17.410;2023-04-09T04:50:54;4.30;89.50
76291;DHT22;65100;46.884;17.410;2023-04-09T04:53:20;4.66;88.14
76291;DHT22;65100;46.884;17.410;2023-04-09T04:55:46;4.70;87.81
76291;DHT22;65100;46.884;17.410;2023-04-09T04:58:11;4.71;87.76
76291;DHT22;65100;46.884;17.410;2023-04-09T05:00:36;4.57;87.97
76291;DHT22;65100;46.884;17.410;2023-04-09T05:03:02;4.45;88.75
76291;DHT22;65100;46.884;17.410;2023-04-09T05:05:27;4.39;89.19
76291;DHT22;65100;46.884;17.410;2023-04-09T05:07:53;4.36;89.12
76291;DHT22;65100;46.884;17.410;2023-04-09T05:10:18;4.16;89.95
76291;DHT22;65100;46.884;17.410;2023-04-09T05:12:44;4.10;89.96
76291;DHT22;65100;46.884;17.410;2023-04-09T05:15:09;4.09;89.68
76291;DHT22;65100;46.884;17.410;2023-04-09T05:17:35;4.43;89.18
76291;DHT22;65100;46.884;17.410;2023-04-09T05:20:00;4.02;90.70
76291;DHT22;65100;46.884;17.410;2023-04-09T05:22:26;4.10;90.45
76291;DHT22;65100;46.884;17.410;2023-04-09T05:24:52;4.37;89.88
76291;DHT22;65100;46.884;17.410;2023-04-09T05:27:18;4.83;87.80
76291;DHT22;65100;46.884;17.410;2023-04-09T05:29:43;5.01;87.74
76291;DHT22;65100;46.884;17.410;2023-04-09T05:32:09;5.32;86.00
76291;DHT22;65100;46.884;17.410;2023-04-09T05:34:35;5.27;86.10
76291;DHT22;65100;46.884;17.410;2023-04-09T05:37:00;5.20;86.31
76291;DHT22;65100;46.884;17.410;2023-04-09T05:39:26;5.54;84.71
76291;DHT22;65100;46.884;17.410;2023-04-09T05:41:51;5.65;85.11
76291;DHT22;65100;46.884;17.410;2023-04-09T05:44:17;5.73;84.84
76291;DHT22;65100;46.884;17.410;2023-04-09T05:46:43;5.78;84.72
76291;DHT22;65100;46.884;17.410;2023-04-09T05:49:08;5.59;85.62
76291;DHT22;65100;46.884;17.410;2023-04-09T05:51:33;5.98;83.30
76291;DHT22;65100;46.884;17.410;2023-04-09T05:53:59;6.12;82.90
76291;DHT22;65100;46.884;17.410;2023-04-09T05:56:25;6.26;82.92
76291;DHT22;65100;46.884;17.410;2023-04-09T05:58:52;6.87;81.50
76291;DHT22;65100;46.884;17.410;2023-04-09T06:01:18;8.12;79.27
76291;DHT22;65100;46.884;17.410;2023-04-09T06:03:43;8.84;77.12
76291;DHT22;65100;46.884;17.410;2023-04-09T06:06:30;10.02;74.10
76291;DHT22;65100;46.884;17.410;2023-04-09T06:09:15;10.82;70.51
76291;DHT22;65100;46.884;17.410;2023-04-09T06:11:41;11.14;69.77
76291;DHT22;65100;46.884;17.410;2023-04-09T06:14:06;11.16;68.61
76291;DHT22;65100;46.884;17.410;2023-04-09T06:16:32;11.31;69.49
76291;DHT22;65100;46.884;17.410;2023-04-09T06:18:57;11.28;68.71
76291;DHT22;65100;46.884;17.410;2023-04-09T06:21:23;11.07;68.29
76291;DHT22;65100;46.884;17.410;2023-04-09T06:23:48;11.43;65.16
76291;DHT22;65100;46.884;17.410;2023-04-09T06:26:14;10.54;65.69
76291;DHT22;65100;46.884;17.410;2023-04-09T06:28:39;11.48;65.47
76291;DHT22;65100;46.884;17.410;2023-04-09T06:31:06;11.56;64.24
76291;DHT22;65100;46.884;17.410;2023-04-09T06:33:31;11.18;66.26
76291;DHT22;65100;46.884;17.410;2023-04-09T06:35:57;11.26;65.79
76291;DHT22;65100;46.884;17.410;2023-04-09T06:38:23;10.67;65.82
76291;DHT22;65100;46.884;17.410;2023-04-09T06:40:48;10.03;68.57
76291;DHT22;65100;46.884;17.410;2023-04-09T06:43:13;10.64;68.80
76291;DHT22;65100;46.884;17.410;2023-04-09T06:45:39;11.58;66.07
76291;DHT22;65100;46.884;17.410;2023-04-09T06:48:05;11.89;61.13
76291;DHT22;65100;46.884;17.410;2023-04-09T06:50:31;12.91;58.77
76291;DHT22;65100;46.884;17.410;2023-04-09T06:52:56;14.47;53.51
76291;DHT22;65100;46.884;17.410;2023-04-09T06:55:22;14.38;54.23
76291;DHT22;65100;46.884;17.410;2023-04-09T06:57:48;13.96;55.11
76291;DHT22;65100;46.884;17.410;2023-04-09T07:00:13;15.70;52.14
76291;DHT22;65100;46.884;17.410;2023-04-09T07:02:39;15.05;51.43
76291;DHT22;65100;46.884;17.410;2023-04-09T07:05:04;13.29;54.63
76291;DHT22;65100;46.884;17.410;2023-04-09T07:07:30;12.16;58.48
76291;DHT22;65100;46.884;17.410;2023-04-09T07:09:56;11.54;61.00
76291;DHT22;65100;46.884;17.410;2023-04-09T07:12:31;11.32;61.25
76291;DHT22;65100;46.884;17.410;2023-04-09T07:15:06;12.73;59.89
76291;DHT22;65100;46.884;17.410;2023-04-09T07:17:32;11.65;62.25
76291;DHT22;65100;46.884;17.410;2023-04-09T07:19:58;10.92;63.28
76291;DHT22;65100;46.884;17.410;2023-04-09T07:22:24;11.89;61.70
76291;DHT22;65100;46.884;17.410;2023-04-09T07:24:51;12.03;60.45
76291;DHT22;65100;46.884;17.410;2023-04-09T07:27:23;11.90;59.75
76291;DHT22;65100;46.884;17.410;2023-04-09T07:29:48;12.47;59.42
76291;DHT22;65100;46.884;17.410;2023-04-09T07:32:14;13.36;57.62
76291;DHT22;65100;46.884;17.410;2023-04-09T07:34:41;13.49;52.35
76291;DHT22;65100;46.884;17.410;2023-04-09T07:37:07;14.03;55.03
76291;DHT22;65100;46.884;17.410;2023-04-09T07:39:32;12.88;55.83
76291;DHT22;65100;46.884;17.410;2023-04-09T07:42:01;12.22;57.61
76291;DHT22;65100;46.884;17.410;2023-04-09T07:44:27;11.55;59.96
76291;DHT22;65100;46.884;17.410;2023-04-09T07:46:52;11.45;59.69
76291;DHT22;65100;46.884;17.410;2023-04-09T07:49:17;11.15;60.08
76291;DHT22;65100;46.884;17.410;2023-04-09T07:51:43;11.02;60.73
76291;DHT22;65100;46.884;17.410;2023-04-09T07:54:08;10.84;62.17
76291;DHT22;65100;46.884;17.410;2023-04-09T07:56:34;11.43;61.24
76291;DHT22;65100;46.884;17.410;2023-04-09T07:58:59;10.48;59.00
76291;DHT22;65100;46.884;17.410;2023-04-09T08:01:25;10.94;59.79
76291;DHT22;65100;46.884;17.410;2023-04-09T08:04:12;11.45;58.97
76291;DHT22;65100;46.884;17.410;2023-04-09T08:06:38;11.92;58.92
76291;DHT22;65100;46.884;17.410;2023-04-09T08:09:03;11.78;58.41
76291;DHT22;65100;46.884;17.410;2023-04-09T08:11:28;11.24;58.61
76291;DHT22;65100;46.884;17.410;2023-04-09T08:13:55;10.53;60.44
76291;DHT22;65100;46.884;17.410;2023-04-09T08:16:21;9.97;59.45
76291;DHT22;65100;46.884;17.410;2023-04-09T08:18:52;10.54;60.48
76291;DHT22;65100;46.884;17.410;2023-04-09T08:21:17;10.50;61.97
76291;DHT22;65100;46.884;17.410;2023-04-09T08:23:43;10.34;60.28
76291;DHT22;65100;46.884;17.410;2023-04-09T08:26:08;10.03;60.67
76291;DHT22;65100;46.884;17.410;2023-04-09T08:28:34;10.12;59.78
76291;DHT22;65100;46.884;17.410;2023-04-09T08:30:59;10.09;61.41
76291;DHT22;65100;46.884;17.410;2023-04-09T08:33:25;9.86;61.63
76291;DHT22;65100;46.884;17.410;2023-04-09T08:35:51;9.45;63.52
76291;DHT22;65100;46.884;17.410;2023-04-09T08:38:18;9.92;60.54
76291;DHT22;65100;46.884;17.410;2023-04-09T08:40:44;10.00;60.95
76291;DHT22;65100;46.884;17.410;2023-04-09T08:43:13;9.90;61.39
76291;DHT22;65100;46.884;17.410;2023-04-09T08:45:40;9.86;61.56
76291;DHT22;65100;46.884;17.410;2023-04-09T08:48:08;9.85;61.86
76291;DHT22;65100;46.884;17.410;2023-04-09T08:50:35;9.85;62.98
76291;DHT22;65100;46.884;17.410;2023-04-09T08:53:04;10.00;61.34
76291;DHT22;65100;46.884;17.410;2023-04-09T08:55:30;9.93;61.16
76291;DHT22;65100;46.884;17.410;2023-04-09T08:57:59;9.75;59.12
76291;DHT22;65100;46.884;17.410;2023-04-09T09:00:24;9.76;58.89
76291;DHT22;65100;46.884;17.410;2023-04-09T09:03:07;9.40;59.31
76291;DHT22;65100;46.884;17.410;2023-04-09T09:05:40;9.59;59.92
76291;DHT22;65100;46.884;17.410;2023-04-09T09:08:07;9.82;58.75
76291;DHT22;65100;46.884;17.410;2023-04-09T09:10:44;9.82;56.98
76291;DHT22;65100;46.884;17.410;2023-04-09T09:13:26;9.53;58.69
76291;DHT22;65100;46.884;17.410;2023-04-09T09:16:11;9.21;62.12
76291;DHT22;65100;46.884;17.410;2023-04-09T09:18:42;9.07;61.79
76291;DHT22;65100;46.884;17.410;2023-04-09T09:21:15;9.39;65.19
76291;DHT22;65100;46.884;17.410;2023-04-09T09:23:41;9.63;64.66
76291;DHT22;65100;46.884;17.410;2023-04-09T09:26:16;9.63;64.03
76291;DHT22;65100;46.884;17.410;2023-04-09T09:28:46;9.49;63.49
76291;DHT22;65100;46.884;17.410;2023-04-09T09:31:13;9.58;63.01
76291;DHT22;65100;46.884;17.410;2023-04-09T09:33:39;9.56;63.37
76291;DHT22;65100;46.884;17.410;2023-04-09T09:36:05;9.46;63.22
76291;DHT22;65100;46.884;17.410;2023-04-09T09:38:36;9.46;62.19
76291;DHT22;65100;46.884;17.410;2023-04-09T09:41:18;9.73;63.57
76291;DHT22;65100;46.884;17.410;2023-04-09T09:43:44;9.76;61.65
76291;DHT22;65100;46.884;17.410;2023-04-09T09:46:10;9.65;61.22
76291;DHT22;65100;46.884;17.410;2023-04-09T09:48:36;9.34;62.69
76291;DHT22;65100;46.884;17.410;2023-04-09T09:51:10;9.69;62.47
76291;DHT22;65100;46.884;17.410;2023-04-09T09:53:37;9.86;60.06
76291;DHT22;65100;46.884;17.410;2023-04-09T09:56:13;10.00;61.72
76291;DHT22;65100;46.884;17.410;2023-04-09T09:58:53;10.27;59.30
76291;DHT22;65100;46.884;17.410;2023-04-09T10:01:21;10.40;58.70
76291;DHT22;65100;46.884;17.410;2023-04-09T10:03:49;10.36;58.42
76291;DHT22;65100;46.884;17.410;2023-04-09T10:06:15;10.32;60.58
76291;DHT22;65100;46.884;17.410;2023-04-09T10:08:41;10.54;57.68
76291;DHT22;65100;46.884;17.410;2023-04-09T10:11:08;10.56;57.80
76291;DHT22;65100;46.884;17.410;2023-04-09T10:13:37;10.48;56.86
76291;DHT22;65100;46.884;17.410;2023-04-09T10:16:03;10.43;57.39
76291;DHT22;65100;46.884;17.410;2023-04-09T10:18:31;10.48;59.34
76291;DHT22;65100;46.884;17.410;2023-04-09T10:23:47;10.33;57.83
76291;DHT22;65100;46.884;17.410;2023-04-09T10:26:13;10.00;58.64
76291;DHT22;65100;46.884;17.410;2023-04-09T10:28:39;9.86;57.88
76291;DHT22;65100;46.884;17.410;2023-04-09T10:31:06;9.78;58.05
76291;DHT22;65100;46.884;17.410;2023-04-09T10:33:35;9.69;57.72
76291;DHT22;65100;46.884;17.410;2023-04-09T10:36:06;9.83;59.05
76291;DHT22;65100;46.884;17.410;2023-04-09T10:41:11;9.76;62.40
76291;DHT22;65100;46.884;17.410;2023-04-09T10:43:38;9.76;61.96
76291;DHT22;65100;46.884;17.410;2023-04-09T10:46:07;9.59;60.94
76291;DHT22;65100;46.884;17.410;2023-04-09T10:48:48;9.26;61.34
76291;DHT22;65100;46.884;17.410;2023-04-09T10:51:18;9.39;60.84
76291;DHT22;65100;46.884;17.410;2023-04-09T10:53:43;9.15;61.97
76291;DHT22;65100;46.884;17.410;2023-04-09T10:56:15;9.15;61.64
76291;DHT22;65100;46.884;17.410;2023-04-09T10:58:41;9.28;62.99
76291;DHT22;65100;46.884;17.410;2023-04-09T11:01:06;9.24;63.25
76291;DHT22;65100;46.884;17.410;2023-04-09T11:03:37;9.15;63.74
76291;DHT22;65100;46.884;17.410;2023-04-09T11:06:09;9.02;63.04
76291;DHT22;65100;46.884;17.410;2023-04-09T11:08:36;9.07;64.61
76291;DHT22;65100;46.884;17.410;2023-04-09T11:11:06;9.12;63.29
76291;DHT22;65100;46.884;17.410;2023-04-09T11:13:32;9.10;63.59
76291;DHT22;65100;46.884;17.410;2023-04-09T11:15:58;8.94;63.04
76291;DHT22;65100;46.884;17.410;2023-04-09T11:18:26;8.95;63.63
76291;DHT22;65100;46.884;17.410;2023-04-09T11:21:00;8.80;64.51
76291;DHT22;65100;46.884;17.410;2023-04-09T11:23:26;8.91;64.83
76291;DHT22;65100;46.884;17.410;2023-04-09T11:25:52;9.02;66.62
76291;DHT22;65100;46.884;17.410;2023-04-09T11:28:19;9.02;65.21
76291;DHT22;65100;46.884;17.410;2023-04-09T11:30:44;9.01;65.52
76291;DHT22;65100;46.884;17.410;2023-04-09T11:33:13;8.92;66.06
76291;DHT22;65100;46.884;17.410;2023-04-09T11:35:38;8.82;66.35
76291;DHT22;65100;46.884;17.410;2023-04-09T11:38:08;8.89;65.38
76291;DHT22;65100;46.884;17.410;2023-04-09T11:40:34;8.94;65.51
76291;DHT22;65100;46.884;17.410;2023-04-09T11:43:00;8.94;65.62
76291;DHT22;65100;46.884;17.410;2023-04-09T11:45:28;9.00;65.40
76291;DHT22;65100;46.884;17.410;2023-04-09T11:47:54;9.01;64.83
76291;DHT22;65100;46.884;17.410;2023-04-09T11:50:20;9.08;62.91
76291;DHT22;65100;46.884;17.410;2023-04-09T11:52:46;9.05;61.62
76291;DHT22;65100;46.884;17.410;2023-04-09T11:55:22;9.10;62.33
76291;DHT22;65100;46.884;17.410;2023-04-09T11:57:48;9.19;63.63
76291;DHT22;65100;46.884;17.410;2023-04-09T12:00:16;8.95;64.48
76291;DHT22;65100;46.884;17.410;2023-04-09T12:02:44;8.82;63.28
76291;DHT22;65100;46.884;17.410;2023-04-09T12:05:43;8.78;63.45
76291;DHT22;65100;46.884;17.410;2023-04-09T12:08:09;8.64;64.19
76291;DHT22;65100;46.884;17.410;2023-04-09T12:10:36;8.50;63.81
76291;DHT22;65100;46.884;17.410;2023-04-09T12:13:07;8.47;65.26
76291;DHT22;65100;46.884;17.410;2023-04-09T12:15:34;8.70;64.10
76291;DHT22;65100;46.884;17.410;2023-04-09T12:18:01;8.85;63.09
76291;DHT22;65100;46.884;17.410;2023-04-09T12:23:01;8.74;63.95
76291;DHT22;65100;46.884;17.410;2023-04-09T12:25:28;8.65;64.71
76291;DHT22;65100;46.884;17.410;2023-04-09T12:27:54;9.04;63.54
76291;DHT22;65100;46.884;17.410;2023-04-09T12:30:21;8.77;63.25
76291;DHT22;65100;46.884;17.410;2023-04-09T12:32:46;9.08;63.83
76291;DHT22;65100;46.884;17.410;2023-04-09T12:35:12;9.24;63.15
76291;DHT22;65100;46.884;17.410;2023-04-09T12:37:38;9.45;63.63
76291;DHT22;65100;46.884;17.410;2023-04-09T12:40:04;9.53;62.49
76291;DHT22;65100;46.884;17.410;2023-04-09T12:42:30;9.59;61.78
76291;DHT22;65100;46.884;17.410;2023-04-09T12:44:55;9.66;62.79
76291;DHT22;65100;46.884;17.410;2023-04-09T12:47:21;9.59;62.72
76291;DHT22;65100;46.884;17.410;2023-04-09T12:49:47;9.69;61.43
76291;DHT22;65100;46.884;17.410;2023-04-09T12:52:14;9.86;61.78
76291;DHT22;65100;46.884;17.410;2023-04-09T12:54:40;9.62;62.07
76291;DHT22;65100;46.884;17.410;2023-04-09T12:57:06;9.87;61.46
76291;DHT22;65100;46.884;17.410;2023-04-09T12:59:32;9.82;60.05
76291;DHT22;65100;46.884;17.410;2023-04-09T13:01:57;9.75;59.54
76291;DHT22;65100;46.884;17.410;2023-04-09T13:04:23;9.46;60.61
76291;DHT22;65100;46.884;17.410;2023-04-09T13:06:48;9.52;60.29
76291;DHT22;65100;46.884;17.410;2023-04-09T13:09:14;9.86;60.79
76291;DHT22;65100;46.884;17.410;2023-04-09T13:11:40;9.89;59.73
76291;DHT22;65100;46.884;17.410;2023-04-09T13:14:05;9.78;59.35
76291;DHT22;65100;46.884;17.410;2023-04-09T13:16:31;9.50;59.61
76291;DHT22;65100;46.884;17.410;2023-04-09T13:18:57;9.72;59.80
76291;DHT22;65100;46.884;17.410;2023-04-09T13:21:22;9.80;60.66
76291;DHT22;65100;46.884;17.410;2023-04-09T13:23:48;9.92;58.99
76291;DHT22;65100;46.884;17.410;2023-04-09T13:26:13;9.97;59.27
76291;DHT22;65100;46.884;17.410;2023-04-09T13:28:39;10.17;60.44
76291;DHT22;65100;46.884;17.410;2023-04-09T13:31:04;10.06;59.64
76291;DHT22;65100;46.884;17.410;2023-04-09T13:33:30;9.93;58.85
76291;DHT22;65100;46.884;17.410;2023-04-09T13:35:56;9.96;58.52
76291;DHT22;65100;46.884;17.410;2023-04-09T13:38:21;10.10;59.68
76291;DHT22;65100;46.884;17.410;2023-04-09T13:40:47;10.03;61.57
76291;DHT22;65100;46.884;17.410;2023-04-09T13:43:13;10.46;58.92
76291;DHT22;65100;46.884;17.410;2023-04-09T13:45:38;10.53;58.06
76291;DHT22;65100;46.884;17.410;2023-04-09T13:48:05;10.50;59.01
76291;DHT22;65100;46.884;17.410;2023-04-09T13:50:31;10.48;58.08
76291;DHT22;65100;46.884;17.410;2023-04-09T13:52:56;10.44;59.65
76291;DHT22;65100;46.884;17.410;2023-04-09T13:55:22;10.47;59.20
76291;DHT22;65100;46.884;17.410;2023-04-09T13:57:47;10.50;59.32
76291;DHT22;65100;46.884;17.410;2023-04-09T14:00:13;10.50;58.29
76291;DHT22;65100;46.884;17.410;2023-04-09T14:02:38;10.53;58.67
76291;DHT22;65100;46.884;17.410;2023-04-09T14:05:04;10.54;57.87
76291;DHT22;65100;46.884;17.410;2023-04-09T14:07:30;10.41;58.85
76291;DHT22;65100;46.884;17.410;2023-04-09T14:09:56;10.13;59.55
76291;DHT22;65100;46.884;17.410;2023-04-09T14:12:22;10.32;58.62
76291;DHT22;65100;46.884;17.410;2023-04-09T14:14:47;10.29;58.90
76291;DHT22;65100;46.884;17.410;2023-04-09T14:17:13;10.44;59.70
76291;DHT22;65100;46.884;17.410;2023-04-09T14:19:38;10.58;60.36
76291;DHT22;65100;46.884;17.410;2023-04-09T14:22:04;10.51;58.65
76291;DHT22;65100;46.884;17.410;2023-04-09T14:24:31;10.51;59.78
76291;DHT22;65100;46.884;17.410;2023-04-09T14:27:06;10.33;60.64
76291;DHT22;65100;46.884;17.410;2023-04-09T14:29:32;10.41;58.78
76291;DHT22;65100;46.884;17.410;2023-04-09T14:31:58;10.32;59.84
76291;DHT22;65100;46.884;17.410;2023-04-09T14:34:25;10.58;60.22
76291;DHT22;65100;46.884;17.410;2023-04-09T14:36:50;10.65;58.60
76291;DHT22;65100;46.884;17.410;2023-04-09T14:39:16;10.64;59.25
76291;DHT22;65100;46.884;17.410;2023-04-09T14:41:42;10.57;58.98
76291;DHT22;65100;46.884;17.410;2023-04-09T14:44:07;10.51;58.10
76291;DHT22;65100;46.884;17.410;2023-04-09T14:46:33;10.29;58.46
76291;DHT22;65100;46.884;17.410;2023-04-09T14:48:58;9.83;58.12
76291;DHT22;65100;46.884;17.410;2023-04-09T14:51:23;10.07;56.25
76291;DHT22;65100;46.884;17.410;2023-04-09T14:53:51;10.10;58.08
76291;DHT22;65100;46.884;17.410;2023-04-09T14:56:17;10.13;56.50
76291;DHT22;65100;46.884;17.410;2023-04-09T14:58:42;10.09;56.91
76291;DHT22;65100;46.884;17.410;2023-04-09T15:01:07;9.90;57.96
76291;DHT22;65100;46.884;17.410;2023-04-09T15:03:33;10.02;57.47
76291;DHT22;65100;46.884;17.410;2023-04-09T15:05:58;10.00;57.49
76291;DHT22;65100;46.884;17.410;2023-04-09T15:08:24;10.03;56.94
76291;DHT22;65100;46.884;17.410;2023-04-09T15:10:49;10.04;55.99
76291;DHT22;65100;46.884;17.410;2023-04-09T15:13:15;9.89;55.91
76291;DHT22;65100;46.884;17.410;2023-04-09T15:15:41;9.80;58.27
76291;DHT22;65100;46.884;17.410;2023-04-09T15:18:08;9.69;59.03
76291;DHT22;65100;46.884;17.410;2023-04-09T15:20:41;9.76;59.34
76291;DHT22;65100;46.884;17.410;2023-04-09T15:23:08;9.87;58.19
76291;DHT22;65100;46.884;17.410;2023-04-09T15:25:34;9.99;57.72
76291;DHT22;65100;46.884;17.410;2023-04-09T15:28:00;9.94;59.40
76291;DHT22;65100;46.884;17.410;2023-04-09T15:30:26;9.90;59.32
76291;DHT22;65100;46.884;17.410;2023-04-09T15:32:52;9.82;59.18
76291;DHT22;65100;46.884;17.410;2023-04-09T15:35:17;9.80;59.02
76291;DHT22;65100;46.884;17.410;2023-04-09T15:37:48;9.86;59.48
76291;DHT22;65100;46.884;17.410;2023-04-09T15:40:14;9.82;58.93